sensor_id;sensor_type;location;lat;lon;timestamp;P1;durP1;ratioP1;P2;durP2;ratioP2
450;SDS011;212;48.748;9.174;2022-07-03T00:01:53;2.30;;;1.97;;
450;SDS011;212;48.748;9.174;2022-07-03T00:04:20;2.67;;;2.47;;
450;SDS011;212;48.748;9.174;2022-07-03T00:06:47;2.43;;;2.23;;
450;SDS011;212;48.748;9.174;2022-07-03T00:09:14;2.50;;;2.30;;
450;SDS011;212;48.748;9.174;2022-07-03T00:11:41;1.77;;;1.67;;
450;SDS011;212;48.748;9.174;2022-07-03T00:14:09;2.50;;;2.30;;
450;SDS011;212;48.748;9.174;2022-07-03T00:16:36;2.33;;;2.20;;
450;SDS011;212;48.748;9.174;2022-07-03T00:19:03;2.53;;;2.07;;
450;SDS011;212;48.748;9.174;2022-07-03T00:21:31;4.07;;;2.53;;
450;SDS011;212;48.748;9.174;2022-07-03T00:24:02;3.60;;;1.80;;
450;SDS011;212;48.748;9.174;2022-07-03T00:26:32;4.17;;;2.67;;
450;SDS011;212;48.748;9.174;2022-07-03T00:29:01;2.77;;;2.57;;
450;SDS011;212;48.748;9.174;2022-07-03T00:31:30;3.07;;;2.87;;
450;SDS011;212;48.748;9.174;2022-07-03T00:33:58;2.60;;;2.40;;
450;SDS011;212;48.748;9.174;2022-07-03T00:36:26;2.47;;;2.17;;
450;SDS011;212;48.748;9.174;2022-07-03T00:38:57;4.53;;;2.80;;
450;SDS011;212;48.748;9.174;2022-07-03T00:41:24;3.17;;;2.57;;
450;SDS011;212;48.748;9.174;2022-07-03T00:43:52;3.20;;;2.47;;
450;SDS011;212;48.748;9.174;2022-07-03T00:46:21;3.03;;;2.60;;
450;SDS011;212;48.748;9.174;2022-07-03T00:48:51;2.13;;;1.97;;
450;SDS011;212;48.748;9.174;2022-07-03T00:51:20;2.40;;;2.20;;
450;SDS011;212;48.748;9.174;2022-07-03T00:53:49;3.70;;;2.20;;
450;SDS011;212;48.748;9.174;2022-07-03T00:56:19;2.43;;;2.23;;
450;SDS011;212;48.748;9.174;2022-07-03T00:58:48;2.40;;;2.00;;
450;SDS011;212;48.748;9.174;2022-07-03T01:01:17;5.23;;;2.37;;
450;SDS011;212;48.748;9.174;2022-07-03T01:03:45;2.67;;;2.47;;
450;SDS011;212;48.748;9.174;2022-07-03T01:06:15;2.70;;;2.40;;
450;SDS011;212;48.748;9.174;2022-07-03T01:08:42;4.83;;;3.07;;
450;SDS011;212;48.748;9.174;2022-07-03T01:11:14;3.27;;;1.90;;
450;SDS011;212;48.748;9.174;2022-07-03T01:13:50;2.67;;;2.43;;
450;SDS011;212;48.748;9.174;2022-07-03T01:16:27;2.73;;;2.53;;
450;SDS011;212;48.748;9.174;2022-07-03T01:19:03;3.13;;;2.93;;
450;SDS011;212;48.748;9.174;2022-07-03T01:21:40;2.80;;;2.27;;
450;SDS011;212;48.748;9.174;2022-07-03T01:24:16;2.90;;;2.43;;
450;SDS011;212;48.748;9.174;2022-07-03T01:26:57;2.30;;;2.10;;
450;SDS011;212;48.748;9.174;2022-07-03T01:29:29;3.20;;;3.00;;
450;SDS011;212;48.748;9.174;2022-07-03T01:32:04;2.60;;;2.33;;
450;SDS011;212;48.748;9.174;2022-07-03T01:34:33;2.57;;;2.37;;
450;SDS011;212;48.748;9.174;2022-07-03T01:37:04;2.33;;;2.13;;
450;SDS011;212;48.748;9.174;2022-07-03T01:39:32;2.47;;;2.27;;
450;SDS011;212;48.748;9.174;2022-07-03T01:42:03;2.70;;;2.50;;
450;SDS011;212;48.748;9.174;2022-07-03T01:44:31;3.73;;;2.37;;
450;SDS011;212;48.748;9.174;2022-07-03T01:46:59;4.50;;;2.40;;
450;SDS011;212;48.748;9.174;2022-07-03T01:49:27;2.67;;;2.47;;
450;SDS011;212;48.748;9.174;2022-07-03T01:51:56;1.80;;;1.60;;
450;SDS011;212;48.748;9.174;2022-07-03T01:54:24;3.83;;;3.00;;
450;SDS011;212;48.748;9.174;2022-07-03T01:56:52;2.30;;;2.10;;
450;SDS011;212;48.748;9.174;2022-07-03T01:59:21;4.10;;;2.60;;
450;SDS011;212;48.748;9.174;2022-07-03T02:01:48;2.63;;;2.40;;
450;SDS011;212;48.748;9.174;2022-07-03T02:04:21;3.13;;;3.00;;
450;SDS011;212;48.748;9.174;2022-07-03T02:06:52;3.80;;;3.60;;
450;SDS011;212;48.748;9.174;2022-07-03T02:09:27;2.67;;;2.47;;
450;SDS011;212;48.748;9.174;2022-07-03T02:12:07;3.73;;;3.60;;
450;SDS011;212;48.748;9.174;2022-07-03T02:14:40;3.27;;;3.07;;
450;SDS011;212;48.748;9.174;2022-07-03T02:17:15;2.83;;;2.63;;
450;SDS011;212;48.748;9.174;2022-07-03T02:19:43;2.83;;;2.63;;
450;SDS011;212;48.748;9.174;2022-07-03T02:22:15;3.67;;;3.13;;
450;SDS011;212;48.748;9.174;2022-07-03T02:24:44;3.50;;;3.30;;
450;SDS011;212;48.748;9.174;2022-07-03T02:27:15;3.13;;;2.93;;
450;SDS011;212;48.748;9.174;2022-07-03T02:29:47;3.10;;;2.90;;
450;SDS011;212;48.748;9.174;2022-07-03T02:32:19;2.97;;;2.77;;
450;SDS011;212;48.748;9.174;2022-07-03T02:34:49;3.60;;;3.40;;
450;SDS011;212;48.748;9.174;2022-07-03T02:37:23;2.70;;;2.50;;
450;SDS011;212;48.748;9.174;2022-07-03T02:39:57;3.20;;;2.93;;
450;SDS011;212;48.748;9.174;2022-07-03T02:42:30;3.63;;;2.90;;
450;SDS011;212;48.748;9.174;2022-07-03T02:45:07;2.83;;;2.63;;
450;SDS011;212;48.748;9.174;2022-07-03T02:47:43;3.60;;;3.17;;
450;SDS011;212;48.748;9.174;2022-07-03T02:50:15;3.77;;;3.03;;
450;SDS011;212;48.748;9.174;2022-07-03T02:52:49;3.10;;;2.90;;
450;SDS011;212;48.748;9.174;2022-07-03T02:55:26;3.13;;;2.93;;
450;SDS011;212;48.748;9.174;2022-07-03T02:58:11;3.07;;;2.87;;
450;SDS011;212;48.748;9.174;2022-07-03T03:00:52;2.70;;;2.50;;
450;SDS011;212;48.748;9.174;2022-07-03T03:03:26;3.20;;;3.00;;
450;SDS011;212;48.748;9.174;2022-07-03T03:05:55;3.00;;;2.80;;
450;SDS011;212;48.748;9.174;2022-07-03T03:08:27;2.60;;;2.40;;
450;SDS011;212;48.748;9.174;2022-07-03T03:11:03;2.60;;;2.40;;
450;SDS011;212;48.748;9.174;2022-07-03T03:13:32;3.87;;;3.07;;
450;SDS011;212;48.748;9.174;2022-07-03T03:16:03;3.20;;;3.00;;
450;SDS011;212;48.748;9.174;2022-07-03T03:18:31;3.30;;;3.10;;
450;SDS011;212;48.748;9.174;2022-07-03T03:21:01;2.93;;;2.77;;
450;SDS011;212;48.748;9.174;2022-07-03T03:23:33;4.07;;;3.87;;
450;SDS011;212;48.748;9.174;2022-07-03T03:26:04;3.70;;;3.50;;
450;SDS011;212;48.748;9.174;2022-07-03T03:28:30;3.47;;;3.27;;
450;SDS011;212;48.748;9.174;2022-07-03T03:30:57;4.40;;;3.80;;
450;SDS011;212;48.748;9.174;2022-07-03T03:33:25;3.77;;;3.57;;
450;SDS011;212;48.748;9.174;2022-07-03T03:35:52;3.87;;;3.67;;
450;SDS011;212;48.748;9.174;2022-07-03T03:38:19;3.50;;;3.30;;
450;SDS011;212;48.748;9.174;2022-07-03T03:40:46;3.73;;;3.53;;
450;SDS011;212;48.748;9.174;2022-07-03T03:43:13;4.00;;;3.80;;
450;SDS011;212;48.748;9.174;2022-07-03T03:45:40;3.33;;;3.13;;
450;SDS011;212;48.748;9.174;2022-07-03T03:48:06;3.20;;;3.00;;
450;SDS011;212;48.748;9.174;2022-07-03T03:50:35;2.80;;;2.60;;
450;SDS011;212;48.748;9.174;2022-07-03T03:53:01;3.37;;;3.17;;
450;SDS011;212;48.748;9.174;2022-07-03T03:55:28;4.90;;;3.90;;
450;SDS011;212;48.748;9.174;2022-07-03T03:57:55;3.73;;;3.60;;
450;SDS011;212;48.748;9.174;2022-07-03T04:00:21;3.57;;;2.77;;
450;SDS011;212;48.748;9.174;2022-07-03T04:02:48;3.00;;;2.80;;
450;SDS011;212;48.748;9.174;2022-07-03T04:05:15;3.07;;;2.90;;
450;SDS011;212;48.748;9.174;2022-07-03T04:07:43;3.57;;;3.37;;
450;SDS011;212;48.748;9.174;2022-07-03T04:10:09;2.67;;;2.50;;
450;SDS011;212;48.748;9.174;2022-07-03T04:12:36;2.73;;;2.50;;
450;SDS011;212;48.748;9.174;2022-07-03T04:15:03;4.80;;;3.37;;
450;SDS011;212;48.748;9.174;2022-07-03T04:17:30;2.93;;;2.73;;
450;SDS011;212;48.748;9.174;2022-07-03T04:19:57;2.73;;;2.53;;
450;SDS011;212;48.748;9.174;2022-07-03T04:22:24;2.43;;;2.27;;
450;SDS011;212;48.748;9.174;2022-07-03T04:24:52;2.67;;;2.50;;
450;SDS011;212;48.748;9.174;2022-07-03T04:27:18;4.63;;;2.40;;
450;SDS011;212;48.748;9.174;2022-07-03T04:29:45;3.37;;;3.17;;
450;SDS011;212;48.748;9.174;2022-07-03T04:32:12;3.07;;;2.87;;
450;SDS011;212;48.748;9.174;2022-07-03T04:34:38;3.20;;;2.20;;
450;SDS011;212;48.748;9.174;2022-07-03T04:37:05;2.60;;;2.40;;
450;SDS011;212;48.748;9.174;2022-07-03T04:39:31;2.70;;;2.50;;
450;SDS011;212;48.748;9.174;2022-07-03T04:41:59;2.20;;;2.00;;
450;SDS011;212;48.748;9.174;2022-07-03T04:44:26;2.80;;;2.60;;
450;SDS011;212;48.748;9.174;2022-07-03T04:46:53;2.57;;;2.37;;
450;SDS011;212;48.748;9.174;2022-07-03T04:49:20;2.80;;;2.37;;
450;SDS011;212;48.748;9.174;2022-07-03T04:51:46;3.30;;;3.10;;
450;SDS011;212;48.748;9.174;2022-07-03T04:54:13;3.17;;;2.97;;
450;SDS011;212;48.748;9.174;2022-07-03T04:56:40;2.80;;;2.60;;
450;SDS011;212;48.748;9.174;2022-07-03T04:59:08;3.00;;;2.80;;
450;SDS011;212;48.748;9.174;2022-07-03T05:01:34;3.07;;;2.87;;
450;SDS011;212;48.748;9.174;2022-07-03T05:04:01;2.70;;;2.50;;
450;SDS011;212;48.748;9.174;2022-07-03T05:06:27;2.60;;;2.40;;
450;SDS011;212;48.748;9.174;2022-07-03T05:08:54;2.63;;;2.43;;
450;SDS011;212;48.748;9.174;2022-07-03T05:11:21;3.00;;;2.70;;
450;SDS011;212;48.748;9.174;2022-07-03T05:13:48;2.70;;;2.50;;
450;SDS011;212;48.748;9.174;2022-07-03T05:16:16;2.57;;;2.37;;
450;SDS011;212;48.748;9.174;2022-07-03T05:18:42;2.97;;;2.77;;
450;SDS011;212;48.748;9.174;2022-07-03T05:21:09;2.60;;;2.40;;
450;SDS011;212;48.748;9.174;2022-07-03T05:23:36;3.73;;;2.30;;
450;SDS011;212;48.748;9.174;2022-07-03T05:26:02;4.27;;;2.40;;
450;SDS011;212;48.748;9.174;2022-07-03T05:28:29;2.50;;;2.30;;
450;SDS011;212;48.748;9.174;2022-07-03T05:30:56;2.47;;;2.27;;
450;SDS011;212;48.748;9.174;2022-07-03T05:33:24;2.57;;;2.37;;
450;SDS011;212;48.748;9.174;2022-07-03T05:35:50;2.80;;;2.60;;
450;SDS011;212;48.748;9.174;2022-07-03T05:38:19;2.53;;;2.30;;
450;SDS011;212;48.748;9.174;2022-07-03T05:41:00;4.70;;;2.77;;
450;SDS011;212;48.748;9.174;2022-07-03T05:43:27;2.10;;;1.90;;
450;SDS011;212;48.748;9.174;2022-07-03T05:45:53;1.93;;;1.83;;
450;SDS011;212;48.748;9.174;2022-07-03T05:48:20;2.47;;;2.00;;
450;SDS011;212;48.748;9.174;2022-07-03T05:50:48;2.70;;;2.10;;
450;SDS011;212;48.748;9.174;2022-07-03T05:53:15;2.50;;;2.10;;
450;SDS011;212;48.748;9.174;2022-07-03T05:55:41;1.97;;;1.70;;
450;SDS011;212;48.748;9.174;2022-07-03T05:58:08;2.00;;;1.70;;
450;SDS011;212;48.748;9.174;2022-07-03T06:00:35;1.63;;;1.53;;
450;SDS011;212;48.748;9.174;2022-07-03T06:03:01;1.90;;;1.80;;
450;SDS011;212;48.748;9.174;2022-07-03T06:05:28;2.90;;;1.30;;
450;SDS011;212;48.748;9.174;2022-07-03T06:07:58;1.90;;;1.73;;
450;SDS011;212;48.748;9.174;2022-07-03T06:10:25;2.00;;;1.60;;
450;SDS011;212;48.748;9.174;2022-07-03T06:12:52;5.00;;;2.23;;
450;SDS011;212;48.748;9.174;2022-07-03T06:15:19;2.20;;;2.00;;
450;SDS011;212;48.748;9.174;2022-07-03T06:17:45;1.70;;;1.60;;
450;SDS011;212;48.748;9.174;2022-07-03T06:20:12;2.23;;;1.80;;
450;SDS011;212;48.748;9.174;2022-07-03T06:22:39;2.47;;;2.27;;
450;SDS011;212;48.748;9.174;2022-07-03T06:25:08;1.90;;;1.80;;
450;SDS011;212;48.748;9.174;2022-07-03T06:27:35;2.20;;;2.00;;
450;SDS011;212;48.748;9.174;2022-07-03T06:30:02;1.80;;;1.70;;
450;SDS011;212;48.748;9.174;2022-07-03T06:32:29;1.93;;;1.80;;
450;SDS011;212;48.748;9.174;2022-07-03T06:34:56;1.87;;;1.77;;
450;SDS011;212;48.748;9.174;2022-07-03T06:37:22;1.70;;;1.60;;
450;SDS011;212;48.748;9.174;2022-07-03T06:39:49;2.03;;;1.83;;
450;SDS011;212;48.748;9.174;2022-07-03T06:42:17;2.23;;;2.03;;
450;SDS011;212;48.748;9.174;2022-07-03T06:44:44;1.77;;;1.67;;
450;SDS011;212;48.748;9.174;2022-07-03T06:47:10;3.20;;;2.83;;
450;SDS011;212;48.748;9.174;2022-07-03T06:49:37;3.03;;;1.87;;
450;SDS011;212;48.748;9.174;2022-07-03T06:52:04;2.20;;;1.40;;
450;SDS011;212;48.748;9.174;2022-07-03T06:54:31;1.90;;;1.70;;
450;SDS011;212;48.748;9.174;2022-07-03T06:56:57;1.33;;;1.30;;
450;SDS011;212;48.748;9.174;2022-07-03T06:59:25;1.70;;;1.67;;
450;SDS011;212;48.748;9.174;2022-07-03T07:01:52;2.60;;;1.97;;
450;SDS011;212;48.748;9.174;2022-07-03T07:04:18;2.20;;;1.33;;
450;SDS011;212;48.748;9.174;2022-07-03T07:06:45;1.70;;;1.60;;
450;SDS011;212;48.748;9.174;2022-07-03T07:09:14;1.10;;;1.00;;
450;SDS011;212;48.748;9.174;2022-07-03T07:11:40;1.47;;;1.40;;
450;SDS011;212;48.748;9.174;2022-07-03T07:14:07;1.60;;;1.30;;
450;SDS011;212;48.748;9.174;2022-07-03T07:16:35;1.50;;;1.50;;
450;SDS011;212;48.748;9.174;2022-07-03T07:19:02;2.07;;;1.37;;
450;SDS011;212;48.748;9.174;2022-07-03T07:21:28;1.07;;;0.97;;
450;SDS011;212;48.748;9.174;2022-07-03T07:23:55;1.70;;;1.60;;
450;SDS011;212;48.748;9.174;2022-07-03T07:26:22;1.10;;;1.00;;
450;SDS011;212;48.748;9.174;2022-07-03T07:28:48;1.23;;;1.13;;
450;SDS011;212;48.748;9.174;2022-07-03T07:31:15;1.83;;;1.20;;
450;SDS011;212;48.748;9.174;2022-07-03T07:33:43;2.70;;;1.50;;
450;SDS011;212;48.748;9.174;2022-07-03T07:36:10;1.40;;;1.00;;
450;SDS011;212;48.748;9.174;2022-07-03T07:38:36;1.87;;;1.10;;
450;SDS011;212;48.748;9.174;2022-07-03T07:41:03;1.83;;;1.10;;
450;SDS011;212;48.748;9.174;2022-07-03T07:43:30;1.10;;;1.00;;
450;SDS011;212;48.748;9.174;2022-07-03T07:45:56;1.40;;;1.10;;
450;SDS011;212;48.748;9.174;2022-07-03T07:48:23;2.67;;;1.77;;
450;SDS011;212;48.748;9.174;2022-07-03T07:50:51;1.70;;;1.10;;
450;SDS011;212;48.748;9.174;2022-07-03T07:53:18;1.00;;;1.00;;
450;SDS011;212;48.748;9.174;2022-07-03T07:55:44;0.93;;;0.90;;
450;SDS011;212;48.748;9.174;2022-07-03T07:58:11;2.17;;;1.07;;
450;SDS011;212;48.748;9.174;2022-07-03T08:00:38;3.23;;;1.13;;
450;SDS011;212;48.748;9.174;2022-07-03T08:03:24;4.07;;;1.20;;
450;SDS011;212;48.748;9.174;2022-07-03T08:06:10;2.10;;;0.80;;
450;SDS011;212;48.748;9.174;2022-07-03T08:08:37;0.87;;;0.87;;
450;SDS011;212;48.748;9.174;2022-07-03T08:11:03;1.33;;;0.80;;
450;SDS011;212;48.748;9.174;2022-07-03T08:13:30;1.10;;;0.97;;
450;SDS011;212;48.748;9.174;2022-07-03T08:15:57;1.13;;;0.90;;
450;SDS011;212;48.748;9.174;2022-07-03T08:18:24;0.93;;;0.83;;
450;SDS011;212;48.748;9.174;2022-07-03T08:20:51;1.53;;;1.00;;
450;SDS011;212;48.748;9.174;2022-07-03T08:23:19;1.43;;;0.80;;
450;SDS011;212;48.748;9.174;2022-07-03T08:25:45;2.57;;;0.90;;
450;SDS011;212;48.748;9.174;2022-07-03T08:28:12;0.70;;;0.50;;
450;SDS011;212;48.748;9.174;2022-07-03T08:30:39;0.90;;;0.70;;
450;SDS011;212;48.748;9.174;2022-07-03T08:33:06;2.67;;;1.40;;
450;SDS011;212;48.748;9.174;2022-07-03T08:35:32;1.83;;;0.97;;
450;SDS011;212;48.748;9.174;2022-07-03T08:37:59;0.80;;;0.73;;
450;SDS011;212;48.748;9.174;2022-07-03T08:40:27;1.50;;;0.97;;
450;SDS011;212;48.748;9.174;2022-07-03T08:42:54;0.90;;;0.90;;
450;SDS011;212;48.748;9.174;2022-07-03T08:45:23;0.80;;;0.80;;
450;SDS011;212;48.748;9.174;2022-07-03T08:47:51;1.07;;;0.70;;
450;SDS011;212;48.748;9.174;2022-07-03T08:50:20;1.20;;;1.10;;
450;SDS011;212;48.748;9.174;2022-07-03T08:52:47;3.53;;;0.87;;
450;SDS011;212;48.748;9.174;2022-07-03T08:55:15;1.47;;;1.20;;
450;SDS011;212;48.748;9.174;2022-07-03T08:57:45;1.00;;;0.80;;
450;SDS011;212;48.748;9.174;2022-07-03T09:00:14;1.07;;;1.00;;
450;SDS011;212;48.748;9.174;2022-07-03T09:02:43;0.70;;;0.70;;
450;SDS011;212;48.748;9.174;2022-07-03T09:05:11;1.33;;;1.20;;
450;SDS011;212;48.748;9.174;2022-07-03T09:07:39;1.00;;;0.87;;
450;SDS011;212;48.748;9.174;2022-07-03T09:10:08;1.00;;;0.90;;
450;SDS011;212;48.748;9.174;2022-07-03T09:12:36;3.20;;;1.00;;
450;SDS011;212;48.748;9.174;2022-07-03T09:15:05;0.90;;;0.70;;
450;SDS011;212;48.748;9.174;2022-07-03T09:17:34;1.00;;;0.73;;
450;SDS011;212;48.748;9.174;2022-07-03T09:20:01;1.07;;;1.00;;
450;SDS011;212;48.748;9.174;2022-07-03T09:22:31;2.23;;;1.10;;
450;SDS011;212;48.748;9.174;2022-07-03T09:25:03;1.53;;;0.60;;
450;SDS011;212;48.748;9.174;2022-07-03T09:27:31;0.80;;;0.60;;
450;SDS011;212;48.748;9.174;2022-07-03T09:29:59;1.53;;;0.73;;
450;SDS011;212;48.748;9.174;2022-07-03T09:32:31;1.00;;;0.87;;
450;SDS011;212;48.748;9.174;2022-07-03T09:35:11;1.17;;;0.90;;
450;SDS011;212;48.748;9.174;2022-07-03T09:37:39;0.87;;;0.80;;
450;SDS011;212;48.748;9.174;2022-07-03T09:40:06;0.70;;;0.60;;
450;SDS011;212;48.748;9.174;2022-07-03T09:42:33;5.30;;;1.07;;
450;SDS011;212;48.748;9.174;2022-07-03T09:45:00;1.37;;;0.70;;
450;SDS011;212;48.748;9.174;2022-07-03T09:47:27;1.10;;;0.77;;
450;SDS011;212;48.748;9.174;2022-07-03T09:49:56;0.70;;;0.60;;
450;SDS011;212;48.748;9.174;2022-07-03T09:55:12;1.63;;;0.87;;
450;SDS011;212;48.748;9.174;2022-07-03T09:57:54;2.07;;;0.60;;
450;SDS011;212;48.748;9.174;2022-07-03T10:00:27;1.80;;;0.67;;
450;SDS011;212;48.748;9.174;2022-07-03T10:02:55;1.13;;;0.70;;
450;SDS011;212;48.748;9.174;2022-07-03T10:05:26;0.90;;;0.63;;
450;SDS011;212;48.748;9.174;2022-07-03T10:07:55;3.27;;;0.70;;
450;SDS011;212;48.748;9.174;2022-07-03T10:10:23;1.73;;;0.83;;
450;SDS011;212;48.748;9.174;2022-07-03T10:12:51;1.30;;;1.20;;
450;SDS011;212;48.748;9.174;2022-07-03T10:15:19;0.80;;;0.80;;
450;SDS011;212;48.748;9.174;2022-07-03T10:17:47;0.93;;;0.80;;
450;SDS011;212;48.748;9.174;2022-07-03T10:20:16;1.27;;;0.60;;
450;SDS011;212;48.748;9.174;2022-07-03T10:22:56;0.97;;;0.80;;
450;SDS011;212;48.748;9.174;2022-07-03T10:25:23;0.87;;;0.70;;
450;SDS011;212;48.748;9.174;2022-07-03T10:27:50;0.90;;;0.70;;
450;SDS011;212;48.748;9.174;2022-07-03T10:30:17;0.97;;;0.87;;
450;SDS011;212;48.748;9.174;2022-07-03T10:32:46;1.53;;;0.70;;
450;SDS011;212;48.748;9.174;2022-07-03T10:35:14;1.17;;;0.80;;
450;SDS011;212;48.748;9.174;2022-07-03T10:37:49;0.87;;;0.80;;
450;SDS011;212;48.748;9.174;2022-07-03T10:40:24;2.70;;;0.97;;
450;SDS011;212;48.748;9.174;2022-07-03T10:43:14;0.90;;;0.80;;
450;SDS011;212;48.748;9.174;2022-07-03T10:46:08;1.27;;;0.80;;
450;SDS011;212;48.748;9.174;2022-07-03T10:54:20;2.60;;;1.83;;
450;SDS011;212;48.748;9.174;2022-07-03T11:02:35;1.17;;;0.70;;
450;SDS011;212;48.748;9.174;2022-07-03T11:08:02;1.57;;;1.10;;
450;SDS011;212;48.748;9.174;2022-07-03T11:10:42;0.90;;;0.70;;
450;SDS011;212;48.748;9.174;2022-07-03T11:13:10;1.03;;;0.80;;
450;SDS011;212;48.748;9.174;2022-07-03T11:15:41;0.70;;;0.60;;
450;SDS011;212;48.748;9.174;2022-07-03T11:18:10;1.47;;;0.60;;
450;SDS011;212;48.748;9.174;2022-07-03T11:23:49;0.83;;;0.83;;
450;SDS011;212;48.748;9.174;2022-07-03T11:26:26;1.47;;;0.93;;
450;SDS011;212;48.748;9.174;2022-07-03T11:28:53;3.43;;;1.10;;
450;SDS011;212;48.748;9.174;2022-07-03T11:31:21;1.67;;;1.00;;
450;SDS011;212;48.748;9.174;2022-07-03T11:33:51;0.80;;;0.77;;
450;SDS011;212;48.748;9.174;2022-07-03T11:36:23;1.00;;;0.90;;
450;SDS011;212;48.748;9.174;2022-07-03T11:39:03;1.53;;;1.40;;
450;SDS011;212;48.748;9.174;2022-07-03T11:41:47;2.03;;;1.00;;
450;SDS011;212;48.748;9.174;2022-07-03T11:44:15;1.63;;;0.93;;
450;SDS011;212;48.748;9.174;2022-07-03T11:46:46;1.33;;;0.90;;
450;SDS011;212;48.748;9.174;2022-07-03T11:49:15;0.90;;;0.90;;
450;SDS011;212;48.748;9.174;2022-07-03T11:51:43;1.00;;;0.90;;
450;SDS011;212;48.748;9.174;2022-07-03T11:54:19;1.57;;;0.63;;
450;SDS011;212;48.748;9.174;2022-07-03T11:56:47;2.43;;;0.90;;
450;SDS011;212;48.748;9.174;2022-07-03T11:59:14;1.83;;;0.90;;
450;SDS011;212;48.748;9.174;2022-07-03T12:01:41;1.30;;;1.00;;
450;SDS011;212;48.748;9.174;2022-07-03T12:04:08;1.20;;;0.87;;
450;SDS011;212;48.748;9.174;2022-07-03T12:06:36;1.60;;;0.63;;
450;SDS011;212;48.748;9.174;2022-07-03T12:09:11;0.80;;;0.77;;
450;SDS011;212;48.748;9.174;2022-07-03T12:11:39;1.40;;;1.30;;
450;SDS011;212;48.748;9.174;2022-07-03T12:14:07;1.33;;;0.87;;
450;SDS011;212;48.748;9.174;2022-07-03T12:16:34;0.97;;;0.97;;
450;SDS011;212;48.748;9.174;2022-07-03T12:19:04;1.37;;;0.67;;
450;SDS011;212;48.748;9.174;2022-07-03T12:21:35;1.07;;;0.90;;
450;SDS011;212;48.748;9.174;2022-07-03T12:24:08;1.37;;;0.90;;
450;SDS011;212;48.748;9.174;2022-07-03T12:26:36;0.70;;;0.60;;
450;SDS011;212;48.748;9.174;2022-07-03T12:29:04;0.80;;;0.73;;
450;SDS011;212;48.748;9.174;2022-07-03T12:31:34;1.30;;;1.00;;
450;SDS011;212;48.748;9.174;2022-07-03T12:34:01;1.87;;;0.80;;
450;SDS011;212;48.748;9.174;2022-07-03T12:36:28;1.53;;;1.00;;
450;SDS011;212;48.748;9.174;2022-07-03T12:38:56;3.00;;;0.70;;
450;SDS011;212;48.748;9.174;2022-07-03T12:41:26;2.77;;;0.83;;
450;SDS011;212;48.748;9.174;2022-07-03T12:43:53;1.00;;;0.90;;
450;SDS011;212;48.748;9.174;2022-07-03T12:46:22;1.63;;;1.13;;
450;SDS011;212;48.748;9.174;2022-07-03T12:48:51;1.60;;;1.00;;
450;SDS011;212;48.748;9.174;2022-07-03T12:51:37;1.77;;;1.10;;
450;SDS011;212;48.748;9.174;2022-07-03T12:54:09;1.70;;;1.00;;
450;SDS011;212;48.748;9.174;2022-07-03T12:56:36;0.90;;;0.80;;
450;SDS011;212;48.748;9.174;2022-07-03T12:59:03;0.80;;;0.80;;
450;SDS011;212;48.748;9.174;2022-07-03T13:01:43;2.30;;;1.00;;
450;SDS011;212;48.748;9.174;2022-07-03T13:04:11;0.93;;;0.87;;
450;SDS011;212;48.748;9.174;2022-07-03T13:06:43;1.30;;;1.23;;
450;SDS011;212;48.748;9.174;2022-07-03T13:09:10;2.00;;;0.80;;
450;SDS011;212;48.748;9.174;2022-07-03T13:11:38;1.40;;;0.90;;
450;SDS011;212;48.748;9.174;2022-07-03T13:14:06;0.87;;;0.70;;
450;SDS011;212;48.748;9.174;2022-07-03T13:16:35;3.73;;;1.27;;
450;SDS011;212;48.748;9.174;2022-07-03T13:19:06;1.10;;;1.00;;
450;SDS011;212;48.748;9.174;2022-07-03T13:21:34;1.63;;;1.07;;
450;SDS011;212;48.748;9.174;2022-07-03T13:24:01;0.90;;;0.80;;
450;SDS011;212;48.748;9.174;2022-07-03T13:26:28;2.00;;;0.83;;
450;SDS011;212;48.748;9.174;2022-07-03T13:28:55;1.87;;;0.93;;
450;SDS011;212;48.748;9.174;2022-07-03T13:31:21;1.33;;;1.23;;
450;SDS011;212;48.748;9.174;2022-07-03T13:33:48;1.00;;;0.93;;
450;SDS011;212;48.748;9.174;2022-07-03T13:36:16;1.00;;;0.80;;
450;SDS011;212;48.748;9.174;2022-07-03T13:38:43;3.30;;;1.20;;
450;SDS011;212;48.748;9.174;2022-07-03T13:41:10;2.70;;;1.23;;
450;SDS011;212;48.748;9.174;2022-07-03T13:43:37;1.10;;;1.00;;
450;SDS011;212;48.748;9.174;2022-07-03T13:46:04;1.97;;;1.10;;
450;SDS011;212;48.748;9.174;2022-07-03T13:48:30;1.60;;;1.50;;
450;SDS011;212;48.748;9.174;2022-07-03T13:50:57;1.90;;;1.23;;
450;SDS011;212;48.748;9.174;2022-07-03T13:53:25;1.20;;;0.90;;
450;SDS011;212;48.748;9.174;2022-07-03T13:55:54;3.20;;;1.30;;
450;SDS011;212;48.748;9.174;2022-07-03T13:58:21;3.00;;;1.20;;
450;SDS011;212;48.748;9.174;2022-07-03T14:00:48;1.87;;;1.00;;
450;SDS011;212;48.748;9.174;2022-07-03T14:03:15;1.33;;;1.23;;
450;SDS011;212;48.748;9.174;2022-07-03T14:05:41;1.47;;;1.37;;
450;SDS011;212;48.748;9.174;2022-07-03T14:08:08;1.17;;;1.10;;
450;SDS011;212;48.748;9.174;2022-07-03T14:10:37;2.27;;;1.50;;
450;SDS011;212;48.748;9.174;2022-07-03T14:13:03;2.83;;;1.17;;
450;SDS011;212;48.748;9.174;2022-07-03T14:15:30;2.70;;;1.50;;
450;SDS011;212;48.748;9.174;2022-07-03T14:17:59;1.33;;;1.27;;
450;SDS011;212;48.748;9.174;2022-07-03T14:20:26;1.57;;;1.20;;
450;SDS011;212;48.748;9.174;2022-07-03T14:22:53;2.80;;;1.20;;
450;SDS011;212;48.748;9.174;2022-07-03T14:25:20;1.67;;;1.30;;
450;SDS011;212;48.748;9.174;2022-07-03T14:27:48;1.60;;;1.20;;
450;SDS011;212;48.748;9.174;2022-07-03T14:30:32;1.37;;;1.27;;
450;SDS011;212;48.748;9.174;2022-07-03T14:33:16;2.63;;;1.40;;
450;SDS011;212;48.748;9.174;2022-07-03T14:35:44;2.50;;;1.27;;
450;SDS011;212;48.748;9.174;2022-07-03T14:38:11;1.00;;;1.00;;
450;SDS011;212;48.748;9.174;2022-07-03T14:40:37;1.87;;;1.07;;
450;SDS011;212;48.748;9.174;2022-07-03T14:43:06;1.00;;;0.90;;
450;SDS011;212;48.748;9.174;2022-07-03T14:45:32;1.37;;;1.10;;
450;SDS011;212;48.748;9.174;2022-07-03T14:47:59;1.20;;;1.20;;
450;SDS011;212;48.748;9.174;2022-07-03T14:50:25;1.00;;;1.00;;
450;SDS011;212;48.748;9.174;2022-07-03T14:52:52;2.13;;;1.30;;
450;SDS011;212;48.748;9.174;2022-07-03T14:55:19;1.27;;;1.20;;
450;SDS011;212;48.748;9.174;2022-07-03T14:57:47;1.83;;;1.10;;
450;SDS011;212;48.748;9.174;2022-07-03T15:00:21;1.03;;;1.00;;
450;SDS011;212;48.748;9.174;2022-07-03T15:02:53;1.63;;;1.53;;
450;SDS011;212;48.748;9.174;2022-07-03T15:05:29;1.33;;;1.23;;
450;SDS011;212;48.748;9.174;2022-07-03T15:08:01;1.60;;;1.50;;
450;SDS011;212;48.748;9.174;2022-07-03T15:10:31;1.50;;;1.30;;
450;SDS011;212;48.748;9.174;2022-07-03T15:13:00;1.30;;;1.10;;
450;SDS011;212;48.748;9.174;2022-07-03T15:15:29;2.43;;;1.03;;
450;SDS011;212;48.748;9.174;2022-07-03T15:17:58;1.40;;;1.30;;
450;SDS011;212;48.748;9.174;2022-07-03T15:20:26;1.87;;;1.30;;
450;SDS011;212;48.748;9.174;2022-07-03T15:22:56;1.03;;;1.03;;
450;SDS011;212;48.748;9.174;2022-07-03T15:25:25;3.43;;;1.20;;
450;SDS011;212;48.748;9.174;2022-07-03T15:27:53;1.90;;;1.60;;
450;SDS011;212;48.748;9.174;2022-07-03T15:30:21;2.83;;;1.13;;
450;SDS011;212;48.748;9.174;2022-07-03T15:32:50;6.83;;;1.10;;
450;SDS011;212;48.748;9.174;2022-07-03T15:35:18;1.70;;;1.67;;
450;SDS011;212;48.748;9.174;2022-07-03T15:37:53;2.00;;;1.90;;
450;SDS011;212;48.748;9.174;2022-07-03T15:40:31;3.57;;;1.73;;
450;SDS011;212;48.748;9.174;2022-07-03T15:43:21;1.73;;;1.60;;
450;SDS011;212;48.748;9.174;2022-07-03T15:46:01;2.50;;;1.47;;
450;SDS011;212;48.748;9.174;2022-07-03T15:48:33;2.87;;;1.37;;
450;SDS011;212;48.748;9.174;2022-07-03T15:51:09;1.20;;;1.03;;
450;SDS011;212;48.748;9.174;2022-07-03T15:53:48;1.10;;;1.00;;
450;SDS011;212;48.748;9.174;2022-07-03T15:56:19;1.27;;;1.10;;
450;SDS011;212;48.748;9.174;2022-07-03T15:58:50;1.77;;;1.40;;
450;SDS011;212;48.748;9.174;2022-07-03T16:01:22;3.60;;;1.40;;
450;SDS011;212;48.748;9.174;2022-07-03T16:04:10;2.00;;;1.30;;
450;SDS011;212;48.748;9.174;2022-07-03T16:06:44;1.20;;;1.20;;
450;SDS011;212;48.748;9.174;2022-07-03T16:09:13;1.17;;;1.17;;
450;SDS011;212;48.748;9.174;2022-07-03T16:11:40;1.40;;;1.20;;
450;SDS011;212;48.748;9.174;2022-07-03T16:14:08;3.77;;;1.50;;
450;SDS011;212;48.748;9.174;2022-07-03T16:16:36;1.30;;;1.20;;
450;SDS011;212;48.748;9.174;2022-07-03T16:19:04;1.73;;;1.10;;